sensor_id;sensor_type;location;lat;lon;timestamp;P1;durP1;ratioP1;P2;durP2;ratioP2
14316;SDS011;7242;50.858;6.586;2023-03-04T00:00:31;52.60;;;31.00;;
14316;SDS011;7242;50.858;6.586;2023-03-04T00:03:31;53.33;;;31.13;;
14316;SDS011;7242;50.858;6.586;2023-03-04T00:06:32;53.00;;;30.73;;
14316;SDS011;7242;50.858;6.586;2023-03-04T00:09:33;51.43;;;30.03;;
14316;SDS011;7242;50.858;6.586;2023-03-04T00:12:34;51.63;;;31.13;;
14316;SDS011;7242;50.858;6.586;2023-03-04T00:15:35;52.77;;;30.37;;
14316;SDS011;7242;50.858;6.586;2023-03-04T00:18:36;49.33;;;28.73;;
14316;SDS011;7242;50.858;6.586;2023-03-04T00:21:36;48.77;;;29.87;;
14316;SDS011;7242;50.858;6.586;2023-03-04T00:24:37;50.00;;;29.37;;
14316;SDS011;7242;50.858;6.586;2023-03-04T00:27:38;49.10;;;29.33;;
14316;SDS011;7242;50.858;6.586;2023-03-04T00:30:38;47.40;;;28.63;;
14316;SDS011;7242;50.858;6.586;2023-03-04T00:33:39;51.43;;;28.40;;
14316;SDS011;7242;50.858;6.586;2023-03-04T00:36:42;47.70;;;27.17;;
14316;SDS011;7242;50.858;6.586;2023-03-04T00:39:43;52.47;;;28.60;;
14316;SDS011;7242;50.858;6.586;2023-03-04T00:42:44;51.33;;;29.23;;
14316;SDS011;7242;50.858;6.586;2023-03-04T00:45:45;47.23;;;27.43;;
14316;SDS011;7242;50.858;6.586;2023-03-04T00:48:47;48.73;;;27.97;;
14316;SDS011;7242;50.858;6.586;2023-03-04T00:51:48;47.77;;;27.83;;
14316;SDS011;7242;50.858;6.586;2023-03-04T00:54:49;49.07;;;28.37;;
14316;SDS011;7242;50.858;6.586;2023-03-04T00:57:49;48.00;;;27.57;;
14316;SDS011;7242;50.858;6.586;2023-03-04T01:00:50;44.77;;;25.83;;
14316;SDS011;7242;50.858;6.586;2023-03-04T01:03:52;47.40;;;27.23;;
14316;SDS011;7242;50.858;6.586;2023-03-04T01:06:52;46.43;;;26.33;;
14316;SDS011;7242;50.858;6.586;2023-03-04T01:09:53;40.93;;;24.80;;
14316;SDS011;7242;50.858;6.586;2023-03-04T01:12:54;46.53;;;25.77;;
14316;SDS011;7242;50.858;6.586;2023-03-04T01:15:56;42.43;;;26.00;;
14316;SDS011;7242;50.858;6.586;2023-03-04T01:18:56;42.67;;;25.50;;
14316;SDS011;7242;50.858;6.586;2023-03-04T01:21:58;45.70;;;24.50;;
14316;SDS011;7242;50.858;6.586;2023-03-04T01:24:59;46.37;;;25.10;;
14316;SDS011;7242;50.858;6.586;2023-03-04T01:28:00;41.97;;;24.93;;
14316;SDS011;7242;50.858;6.586;2023-03-04T01:31:01;45.20;;;25.33;;
14316;SDS011;7242;50.858;6.586;2023-03-04T01:34:03;41.37;;;23.53;;
14316;SDS011;7242;50.858;6.586;2023-03-04T01:37:03;40.77;;;23.67;;
14316;SDS011;7242;50.858;6.586;2023-03-04T01:40:04;44.90;;;24.33;;
14316;SDS011;7242;50.858;6.586;2023-03-04T01:43:06;41.47;;;23.53;;
14316;SDS011;7242;50.858;6.586;2023-03-04T01:46:08;39.90;;;23.03;;
14316;SDS011;7242;50.858;6.586;2023-03-04T01:49:12;37.37;;;22.10;;
14316;SDS011;7242;50.858;6.586;2023-03-04T01:52:14;35.83;;;20.47;;
14316;SDS011;7242;50.858;6.586;2023-03-04T01:55:16;35.30;;;20.07;;
14316;SDS011;7242;50.858;6.586;2023-03-04T01:58:18;36.60;;;19.90;;
14316;SDS011;7242;50.858;6.586;2023-03-04T02:01:19;34.27;;;19.00;;
14316;SDS011;7242;50.858;6.586;2023-03-04T02:04:25;34.87;;;19.77;;
14316;SDS011;7242;50.858;6.586;2023-03-04T02:07:27;35.90;;;19.97;;
14316;SDS011;7242;50.858;6.586;2023-03-04T02:10:28;34.73;;;19.17;;
14316;SDS011;7242;50.858;6.586;2023-03-04T02:13:29;33.77;;;18.60;;
14316;SDS011;7242;50.858;6.586;2023-03-04T02:16:30;32.87;;;19.00;;
14316;SDS011;7242;50.858;6.586;2023-03-04T02:19:48;33.67;;;18.40;;
14316;SDS011;7242;50.858;6.586;2023-03-04T02:22:58;34.17;;;18.47;;
14316;SDS011;7242;50.858;6.586;2023-03-04T02:26:11;35.23;;;18.27;;
14316;SDS011;7242;50.858;6.586;2023-03-04T02:29:25;32.07;;;18.50;;
14316;SDS011;7242;50.858;6.586;2023-03-04T02:32:26;33.97;;;18.47;;
14316;SDS011;7242;50.858;6.586;2023-03-04T02:35:27;35.50;;;18.97;;
14316;SDS011;7242;50.858;6.586;2023-03-04T02:38:28;28.53;;;16.47;;
14316;SDS011;7242;50.858;6.586;2023-03-04T02:41:29;31.90;;;16.87;;
14316;SDS011;7242;50.858;6.586;2023-03-04T02:44:32;29.33;;;16.87;;
14316;SDS011;7242;50.858;6.586;2023-03-04T02:47:37;27.83;;;16.00;;
14316;SDS011;7242;50.858;6.586;2023-03-04T02:50:46;27.87;;;15.77;;
14316;SDS011;7242;50.858;6.586;2023-03-04T02:53:48;26.07;;;14.87;;
14316;SDS011;7242;50.858;6.586;2023-03-04T02:56:50;26.50;;;15.50;;
14316;SDS011;7242;50.858;6.586;2023-03-04T02:59:54;25.43;;;16.57;;
14316;SDS011;7242;50.858;6.586;2023-03-04T03:02:58;29.27;;;15.90;;
14316;SDS011;7242;50.858;6.586;2023-03-04T03:06:00;31.90;;;15.60;;
14316;SDS011;7242;50.858;6.586;2023-03-04T03:09:02;27.30;;;15.33;;
14316;SDS011;7242;50.858;6.586;2023-03-04T03:12:03;28.23;;;14.80;;
14316;SDS011;7242;50.858;6.586;2023-03-04T03:15:06;28.87;;;15.37;;
14316;SDS011;7242;50.858;6.586;2023-03-04T03:18:10;27.37;;;14.07;;
14316;SDS011;7242;50.858;6.586;2023-03-04T03:21:10;31.20;;;13.90;;
14316;SDS011;7242;50.858;6.586;2023-03-04T03:24:12;26.30;;;13.80;;
14316;SDS011;7242;50.858;6.586;2023-03-04T03:27:12;29.47;;;14.17;;
14316;SDS011;7242;50.858;6.586;2023-03-04T03:30:14;23.80;;;13.37;;
14316;SDS011;7242;50.858;6.586;2023-03-04T03:33:15;24.80;;;13.90;;
14316;SDS011;7242;50.858;6.586;2023-03-04T03:36:16;26.43;;;14.03;;
14316;SDS011;7242;50.858;6.586;2023-03-04T03:39:16;27.43;;;14.00;;
14316;SDS011;7242;50.858;6.586;2023-03-04T03:42:17;25.20;;;13.73;;
14316;SDS011;7242;50.858;6.586;2023-03-04T03:45:18;23.43;;;13.03;;
14316;SDS011;7242;50.858;6.586;2023-03-04T03:48:19;27.33;;;13.20;;
14316;SDS011;7242;50.858;6.586;2023-03-04T03:51:19;24.40;;;12.63;;
14316;SDS011;7242;50.858;6.586;2023-03-04T03:54:20;25.27;;;13.00;;
14316;SDS011;7242;50.858;6.586;2023-03-04T03:57:21;25.37;;;12.40;;
14316;SDS011;7242;50.858;6.586;2023-03-04T04:00:23;29.60;;;13.67;;
14316;SDS011;7242;50.858;6.586;2023-03-04T04:03:23;26.73;;;12.70;;
14316;SDS011;7242;50.858;6.586;2023-03-04T04:06:24;21.00;;;11.57;;
14316;SDS011;7242;50.858;6.586;2023-03-04T04:09:25;23.17;;;12.07;;
14316;SDS011;7242;50.858;6.586;2023-03-04T04:12:26;26.73;;;12.60;;
14316;SDS011;7242;50.858;6.586;2023-03-04T04:15:27;22.10;;;11.50;;
14316;SDS011;7242;50.858;6.586;2023-03-04T04:18:27;25.40;;;12.10;;
14316;SDS011;7242;50.858;6.586;2023-03-04T04:21:28;26.23;;;12.93;;
14316;SDS011;7242;50.858;6.586;2023-03-04T04:24:29;27.13;;;12.43;;
14316;SDS011;7242;50.858;6.586;2023-03-04T04:27:30;26.47;;;11.70;;
14316;SDS011;7242;50.858;6.586;2023-03-04T04:30:31;22.00;;;11.20;;
14316;SDS011;7242;50.858;6.586;2023-03-04T04:33:32;21.53;;;11.33;;
14316;SDS011;7242;50.858;6.586;2023-03-04T04:36:32;20.77;;;11.37;;
14316;SDS011;7242;50.858;6.586;2023-03-04T04:39:34;22.43;;;12.30;;
14316;SDS011;7242;50.858;6.586;2023-03-04T04:42:35;29.37;;;12.90;;
14316;SDS011;7242;50.858;6.586;2023-03-04T04:45:36;26.87;;;12.37;;
14316;SDS011;7242;50.858;6.586;2023-03-04T04:48:36;25.47;;;12.57;;
14316;SDS011;7242;50.858;6.586;2023-03-04T04:51:37;22.33;;;11.73;;
14316;SDS011;7242;50.858;6.586;2023-03-04T04:54:38;27.87;;;12.00;;
14316;SDS011;7242;50.858;6.586;2023-03-04T04:57:39;22.40;;;11.53;;
14316;SDS011;7242;50.858;6.586;2023-03-04T05:00:40;22.93;;;11.33;;
14316;SDS011;7242;50.858;6.586;2023-03-04T05:03:41;22.27;;;10.83;;
14316;SDS011;7242;50.858;6.586;2023-03-04T05:06:42;22.57;;;10.83;;
14316;SDS011;7242;50.858;6.586;2023-03-04T05:09:43;22.80;;;9.63;;
14316;SDS011;7242;50.858;6.586;2023-03-04T05:12:45;19.80;;;8.70;;
14316;SDS011;7242;50.858;6.586;2023-03-04T05:15:46;21.80;;;9.13;;
14316;SDS011;7242;50.858;6.586;2023-03-04T05:18:47;18.53;;;8.10;;
14316;SDS011;7242;50.858;6.586;2023-03-04T05:21:47;23.00;;;8.37;;
14316;SDS011;7242;50.858;6.586;2023-03-04T05:24:49;19.97;;;8.73;;
14316;SDS011;7242;50.858;6.586;2023-03-04T05:27:49;19.27;;;8.73;;
14316;SDS011;7242;50.858;6.586;2023-03-04T05:30:50;20.90;;;8.63;;
14316;SDS011;7242;50.858;6.586;2023-03-04T05:33:51;19.43;;;8.77;;
14316;SDS011;7242;50.858;6.586;2023-03-04T05:36:52;28.67;;;9.17;;
14316;SDS011;7242;50.858;6.586;2023-03-04T05:39:52;18.47;;;7.37;;
14316;SDS011;7242;50.858;6.586;2023-03-04T05:42:53;19.00;;;7.63;;
14316;SDS011;7242;50.858;6.586;2023-03-04T05:45:55;17.30;;;7.13;;
14316;SDS011;7242;50.858;6.586;2023-03-04T05:48:56;17.37;;;7.10;;
14316;SDS011;7242;50.858;6.586;2023-03-04T05:51:57;16.47;;;7.23;;
14316;SDS011;7242;50.858;6.586;2023-03-04T05:54:58;14.60;;;6.53;;
14316;SDS011;7242;50.858;6.586;2023-03-04T05:57:59;11.80;;;5.53;;
14316;SDS011;7242;50.858;6.586;2023-03-04T06:01:00;17.70;;;5.77;;
14316;SDS011;7242;50.858;6.586;2023-03-04T06:04:01;14.70;;;5.70;;
14316;SDS011;7242;50.858;6.586;2023-03-04T06:07:02;11.67;;;5.10;;
14316;SDS011;7242;50.858;6.586;2023-03-04T06:10:03;14.37;;;5.93;;
14316;SDS011;7242;50.858;6.586;2023-03-04T06:13:04;16.00;;;5.67;;
14316;SDS011;7242;50.858;6.586;2023-03-04T06:16:05;15.43;;;5.37;;
14316;SDS011;7242;50.858;6.586;2023-03-04T06:19:06;14.33;;;5.07;;
14316;SDS011;7242;50.858;6.586;2023-03-04T06:22:07;15.70;;;5.37;;
14316;SDS011;7242;50.858;6.586;2023-03-04T06:25:08;14.63;;;5.90;;
14316;SDS011;7242;50.858;6.586;2023-03-04T06:28:09;15.17;;;5.33;;
14316;SDS011;7242;50.858;6.586;2023-03-04T06:31:10;14.67;;;5.53;;
14316;SDS011;7242;50.858;6.586;2023-03-04T06:34:11;17.73;;;5.47;;
14316;SDS011;7242;50.858;6.586;2023-03-04T06:37:12;11.40;;;5.47;;
14316;SDS011;7242;50.858;6.586;2023-03-04T06:40:13;12.10;;;5.10;;
14316;SDS011;7242;50.858;6.586;2023-03-04T06:43:13;12.43;;;4.90;;
14316;SDS011;7242;50.858;6.586;2023-03-04T06:46:14;15.20;;;5.00;;
14316;SDS011;7242;50.858;6.586;2023-03-04T06:49:15;10.97;;;4.33;;
14316;SDS011;7242;50.858;6.586;2023-03-04T06:52:16;11.70;;;4.10;;
14316;SDS011;7242;50.858;6.586;2023-03-04T06:55:17;9.73;;;4.10;;
14316;SDS011;7242;50.858;6.586;2023-03-04T06:58:18;13.63;;;4.50;;
14316;SDS011;7242;50.858;6.586;2023-03-04T07:01:20;11.17;;;4.40;;
14316;SDS011;7242;50.858;6.586;2023-03-04T07:04:26;9.33;;;3.63;;
14316;SDS011;7242;50.858;6.586;2023-03-04T07:07:26;13.43;;;4.60;;
14316;SDS011;7242;50.858;6.586;2023-03-04T07:10:27;14.20;;;4.27;;
14316;SDS011;7242;50.858;6.586;2023-03-04T07:13:28;13.57;;;3.90;;
14316;SDS011;7242;50.858;6.586;2023-03-04T07:16:29;11.43;;;3.60;;
14316;SDS011;7242;50.858;6.586;2023-03-04T07:19:30;12.03;;;4.07;;
14316;SDS011;7242;50.858;6.586;2023-03-04T07:22:31;14.67;;;4.10;;
14316;SDS011;7242;50.858;6.586;2023-03-04T07:25:32;11.47;;;3.87;;
14316;SDS011;7242;50.858;6.586;2023-03-04T07:28:33;11.50;;;3.57;;
14316;SDS011;7242;50.858;6.586;2023-03-04T07:31:35;7.73;;;3.40;;
14316;SDS011;7242;50.858;6.586;2023-03-04T07:34:36;13.10;;;3.67;;
14316;SDS011;7242;50.858;6.586;2023-03-04T07:37:37;11.47;;;3.57;;
14316;SDS011;7242;50.858;6.586;2023-03-04T07:40:39;9.50;;;3.30;;
14316;SDS011;7242;50.858;6.586;2023-03-04T07:43:40;6.40;;;2.90;;
14316;SDS011;7242;50.858;6.586;2023-03-04T07:46:41;10.43;;;3.30;;
14316;SDS011;7242;50.858;6.586;2023-03-04T07:49:42;10.43;;;3.40;;
14316;SDS011;7242;50.858;6.586;2023-03-04T07:52:44;9.83;;;3.30;;
14316;SDS011;7242;50.858;6.586;2023-03-04T07:55:46;7.70;;;3.03;;
14316;SDS011;7242;50.858;6.586;2023-03-04T07:58:48;9.60;;;3.30;;
14316;SDS011;7242;50.858;6.586;2023-03-04T08:01:49;11.67;;;3.47;;
14316;SDS011;7242;50.858;6.586;2023-03-04T08:04:50;9.03;;;2.63;;
14316;SDS011;7242;50.858;6.586;2023-03-04T08:07:51;9.97;;;2.57;;
14316;SDS011;7242;50.858;6.586;2023-03-04T08:10:52;9.40;;;3.07;;
14316;SDS011;7242;50.858;6.586;2023-03-04T08:13:54;8.23;;;2.60;;
14316;SDS011;7242;50.858;6.586;2023-03-04T08:16:56;10.93;;;2.80;;
14316;SDS011;7242;50.858;6.586;2023-03-04T08:19:57;7.60;;;2.97;;
14316;SDS011;7242;50.858;6.586;2023-03-04T08:22:58;11.43;;;3.00;;
14316;SDS011;7242;50.858;6.586;2023-03-04T08:25:59;7.90;;;2.47;;
14316;SDS011;7242;50.858;6.586;2023-03-04T08:29:05;8.70;;;2.83;;
14316;SDS011;7242;50.858;6.586;2023-03-04T08:32:06;6.43;;;2.53;;
14316;SDS011;7242;50.858;6.586;2023-03-04T08:35:07;10.90;;;2.67;;
14316;SDS011;7242;50.858;6.586;2023-03-04T08:38:07;6.50;;;2.37;;
14316;SDS011;7242;50.858;6.586;2023-03-04T08:41:09;8.33;;;2.50;;
14316;SDS011;7242;50.858;6.586;2023-03-04T08:44:10;9.33;;;2.20;;
14316;SDS011;7242;50.858;6.586;2023-03-04T08:47:11;7.30;;;2.20;;
14316;SDS011;7242;50.858;6.586;2023-03-04T08:50:13;5.17;;;2.30;;
14316;SDS011;7242;50.858;6.586;2023-03-04T08:53:14;7.53;;;2.67;;
14316;SDS011;7242;50.858;6.586;2023-03-04T08:56:16;5.30;;;2.53;;
14316;SDS011;7242;50.858;6.586;2023-03-04T08:59:17;5.20;;;2.20;;
14316;SDS011;7242;50.858;6.586;2023-03-04T09:02:18;7.43;;;2.70;;
14316;SDS011;7242;50.858;6.586;2023-03-04T09:05:19;5.87;;;2.17;;
14316;SDS011;7242;50.858;6.586;2023-03-04T09:08:20;5.80;;;2.10;;
14316;SDS011;7242;50.858;6.586;2023-03-04T09:11:21;9.73;;;3.10;;
14316;SDS011;7242;50.858;6.586;2023-03-04T09:14:22;8.23;;;2.00;;
14316;SDS011;7242;50.858;6.586;2023-03-04T09:17:23;8.23;;;2.50;;
14316;SDS011;7242;50.858;6.586;2023-03-04T09:20:24;10.57;;;2.40;;
14316;SDS011;7242;50.858;6.586;2023-03-04T09:23:24;12.47;;;2.70;;
14316;SDS011;7242;50.858;6.586;2023-03-04T09:26:26;10.57;;;2.37;;
14316;SDS011;7242;50.858;6.586;2023-03-04T09:29:28;6.50;;;2.20;;
14316;SDS011;7242;50.858;6.586;2023-03-04T09:32:29;6.37;;;2.50;;
14316;SDS011;7242;50.858;6.586;2023-03-04T09:35:29;7.57;;;2.37;;
14316;SDS011;7242;50.858;6.586;2023-03-04T09:38:30;7.63;;;1.97;;
14316;SDS011;7242;50.858;6.586;2023-03-04T09:41:36;9.17;;;2.27;;
14316;SDS011;7242;50.858;6.586;2023-03-04T09:44:42;5.17;;;1.97;;
14316;SDS011;7242;50.858;6.586;2023-03-04T09:47:47;6.80;;;2.20;;
14316;SDS011;7242;50.858;6.586;2023-03-04T09:50:54;4.37;;;2.17;;
14316;SDS011;7242;50.858;6.586;2023-03-04T10:00:20;7.93;;;2.50;;
14316;SDS011;7242;50.858;6.586;2023-03-04T10:06:47;5.90;;;2.30;;
14316;SDS011;7242;50.858;6.586;2023-03-04T10:09:55;6.93;;;2.50;;
14316;SDS011;7242;50.858;6.586;2023-03-04T10:12:59;5.63;;;2.20;;
14316;SDS011;7242;50.858;6.586;2023-03-04T10:16:02;6.37;;;2.10;;
14316;SDS011;7242;50.858;6.586;2023-03-04T10:19:14;4.80;;;2.13;;
14316;SDS011;7242;50.858;6.586;2023-03-04T10:22:45;7.10;;;2.50;;
14316;SDS011;7242;50.858;6.586;2023-03-04T10:25:51;7.50;;;2.60;;
14316;SDS011;7242;50.858;6.586;2023-03-04T10:28:53;6.23;;;2.10;;
14316;SDS011;7242;50.858;6.586;2023-03-04T10:31:54;6.93;;;2.40;;
14316;SDS011;7242;50.858;6.586;2023-03-04T10:34:55;4.73;;;1.80;;
14316;SDS011;7242;50.858;6.586;2023-03-04T10:37:56;7.07;;;1.70;;
14316;SDS011;7242;50.858;6.586;2023-03-04T10:41:12;3.33;;;1.30;;
14316;SDS011;7242;50.858;6.586;2023-03-04T10:44:21;6.27;;;1.67;;
14316;SDS011;7242;50.858;6.586;2023-03-04T10:47:27;4.67;;;1.70;;
14316;SDS011;7242;50.858;6.586;2023-03-04T10:50:28;2.93;;;1.53;;
14316;SDS011;7242;50.858;6.586;2023-03-04T10:53:32;4.90;;;1.97;;
14316;SDS011;7242;50.858;6.586;2023-03-04T10:56:38;5.43;;;1.73;;
14316;SDS011;7242;50.858;6.586;2023-03-04T10:59:57;5.47;;;1.70;;
14316;SDS011;7242;50.858;6.586;2023-03-04T11:06:25;5.87;;;1.60;;
14316;SDS011;7242;50.858;6.586;2023-03-04T11:09:28;4.33;;;1.70;;
14316;SDS011;7242;50.858;6.586;2023-03-04T11:12:31;4.23;;;1.10;;
14316;SDS011;7242;50.858;6.586;2023-03-04T11:15:46;4.10;;;1.40;;
14316;SDS011;7242;50.858;6.586;2023-03-04T11:18:51;5.57;;;1.60;;
14316;SDS011;7242;50.858;6.586;2023-03-04T11:21:54;6.73;;;1.60;;
14316;SDS011;7242;50.858;6.586;2023-03-04T11:25:01;4.83;;;1.70;;
14316;SDS011;7242;50.858;6.586;2023-03-04T11:28:22;5.20;;;1.70;;
14316;SDS011;7242;50.858;6.586;2023-03-04T11:31:37;4.03;;;1.37;;
14316;SDS011;7242;50.858;6.586;2023-03-04T11:34:49;4.53;;;1.50;;
14316;SDS011;7242;50.858;6.586;2023-03-04T11:38:03;4.00;;;1.80;;
14316;SDS011;7242;50.858;6.586;2023-03-04T11:41:23;4.67;;;1.80;;
14316;SDS011;7242;50.858;6.586;2023-03-04T11:44:31;4.97;;;1.67;;
14316;SDS011;7242;50.858;6.586;2023-03-04T11:47:35;4.20;;;1.50;;
14316;SDS011;7242;50.858;6.586;2023-03-04T11:50:50;5.33;;;1.90;;
14316;SDS011;7242;50.858;6.586;2023-03-04T12:00:44;3.23;;;1.60;;
14316;SDS011;7242;50.858;6.586;2023-03-04T12:27:23;4.27;;;1.70;;
14316;SDS011;7242;50.858;6.586;2023-03-04T12:41:19;4.90;;;1.90;;
14316;SDS011;7242;50.858;6.586;2023-03-04T12:51:26;7.83;;;2.00;;
14316;SDS011;7242;50.858;6.586;2023-03-04T12:54:43;2.60;;;1.73;;
14316;SDS011;7242;50.858;6.586;2023-03-04T12:57:47;4.47;;;2.13;;
14316;SDS011;7242;50.858;6.586;2023-03-04T13:10:19;3.37;;;2.10;;
14316;SDS011;7242;50.858;6.586;2023-03-04T13:13:32;4.37;;;2.60;;
14316;SDS011;7242;50.858;6.586;2023-03-04T13:16:37;4.53;;;2.27;;
14316;SDS011;7242;50.858;6.586;2023-03-04T13:22:45;3.50;;;1.40;;
14316;SDS011;7242;50.858;6.586;2023-03-04T13:29:09;5.00;;;2.40;;
14316;SDS011;7242;50.858;6.586;2023-03-04T13:32:34;8.17;;;2.60;;
14316;SDS011;7242;50.858;6.586;2023-03-04T13:38:55;3.33;;;1.60;;
14316;SDS011;7242;50.858;6.586;2023-03-04T13:42:01;4.73;;;1.70;;
14316;SDS011;7242;50.858;6.586;2023-03-04T13:45:02;4.20;;;1.67;;
14316;SDS011;7242;50.858;6.586;2023-03-04T13:48:05;3.63;;;1.67;;
14316;SDS011;7242;50.858;6.586;2023-03-04T13:51:24;4.90;;;1.70;;
14316;SDS011;7242;50.858;6.586;2023-03-04T13:57:33;3.90;;;1.47;;
14316;SDS011;7242;50.858;6.586;2023-03-04T14:00:36;5.93;;;1.70;;
14316;SDS011;7242;50.858;6.586;2023-03-04T14:03:48;4.73;;;1.70;;
14316;SDS011;7242;50.858;6.586;2023-03-04T14:06:49;4.73;;;1.60;;
14316;SDS011;7242;50.858;6.586;2023-03-04T14:10:03;3.53;;;1.53;;
14316;SDS011;7242;50.858;6.586;2023-03-04T14:13:22;4.90;;;1.67;;
14316;SDS011;7242;50.858;6.586;2023-03-04T14:16:25;3.60;;;1.60;;
14316;SDS011;7242;50.858;6.586;2023-03-04T14:22:29;3.17;;;1.70;;
14316;SDS011;7242;50.858;6.586;2023-03-04T14:25:40;3.83;;;1.80;;
14316;SDS011;7242;50.858;6.586;2023-03-04T14:28:42;3.70;;;1.87;;
14316;SDS011;7242;50.858;6.586;2023-03-04T14:31:44;5.83;;;1.53;;
14316;SDS011;7242;50.858;6.586;2023-03-04T14:34:45;4.13;;;1.97;;
14316;SDS011;7242;50.858;6.586;2023-03-04T14:37:59;4.67;;;1.87;;
14316;SDS011;7242;50.858;6.586;2023-03-04T14:41:29;3.40;;;1.90;;
14316;SDS011;7242;50.858;6.586;2023-03-04T14:44:36;4.10;;;2.00;;
14316;SDS011;7242;50.858;6.586;2023-03-04T14:47:43;3.73;;;2.00;;
14316;SDS011;7242;50.858;6.586;2023-03-04T14:50:50;7.33;;;1.70;;
14316;SDS011;7242;50.858;6.586;2023-03-04T14:53:53;3.00;;;1.77;;
14316;SDS011;7242;50.858;6.586;2023-03-04T14:56:55;4.20;;;1.90;;
14316;SDS011;7242;50.858;6.586;2023-03-04T15:00:06;4.70;;;1.90;;
14316;SDS011;7242;50.858;6.586;2023-03-04T15:06:17;4.67;;;2.00;;
14316;SDS011;7242;50.858;6.586;2023-03-04T15:09:21;4.67;;;2.00;;
14316;SDS011;7242;50.858;6.586;2023-03-04T15:12:25;4.57;;;2.10;;
14316;SDS011;7242;50.858;6.586;2023-03-04T15:18:53;4.60;;;1.67;;
14316;SDS011;7242;50.858;6.586;2023-03-04T15:22:22;4.73;;;1.80;;
14316;SDS011;7242;50.858;6.586;2023-03-04T15:25:23;2.87;;;1.80;;
14316;SDS011;7242;50.858;6.586;2023-03-04T15:28:24;4.03;;;1.93;;
14316;SDS011;7242;50.858;6.586;2023-03-04T15:31:27;5.47;;;2.03;;
14316;SDS011;7242;50.858;6.586;2023-03-04T15:34:29;5.03;;;1.90;;
14316;SDS011;7242;50.858;6.586;2023-03-04T15:37:30;4.60;;;1.80;;
14316;SDS011;7242;50.858;6.586;2023-03-04T15:40:35;3.13;;;1.90;;
14316;SDS011;7242;50.858;6.586;2023-03-04T15:43:38;4.33;;;2.20;;
14316;SDS011;7242;50.858;6.586;2023-03-04T15:46:38;2.53;;;2.00;;
14316;SDS011;7242;50.858;6.586;2023-03-04T15:49:40;4.43;;;2.30;;
14316;SDS011;7242;50.858;6.586;2023-03-04T15:52:41;3.43;;;2.20;;
14316;SDS011;7242;50.858;6.586;2023-03-04T15:55:43;5.90;;;2.23;;
14316;SDS011;7242;50.858;6.586;2023-03-04T15:58:55;5.00;;;2.10;;
14316;SDS011;7242;50.858;6.586;2023-03-04T16:01:58;4.10;;;1.87;;
14316;SDS011;7242;50.858;6.586;2023-03-04T16:04:59;5.27;;;2.10;;
14316;SDS011;7242;50.858;6.586;2023-03-04T16:08:01;2.57;;;1.80;;
14316;SDS011;7242;50.858;6.586;2023-03-04T16:11:01;4.20;;;2.20;;
14316;SDS011;7242;50.858;6.586;2023-03-04T16:14:02;5.80;;;2.80;;
14316;SDS011;7242;50.858;6.586;2023-03-04T16:17:04;4.63;;;2.50;;
14316;SDS011;7242;50.858;6.586;2023-03-04T16:20:04;3.37;;;2.50;;
14316;SDS011;7242;50.858;6.586;2023-03-04T16:23:08;5.10;;;2.33;;
14316;SDS011;7242;50.858;6.586;2023-03-04T16:26:12;3.97;;;2.47;;
14316;SDS011;7242;50.858;6.586;2023-03-04T16:29:15;4.27;;;2.87;;
14316;SDS011;7242;50.858;6.586;2023-03-04T16:32:16;5.10;;;2.63;;
14316;SDS011;7242;50.858;6.586;2023-03-04T16:35:17;4.27;;;2.90;;
14316;SDS011;7242;50.858;6.586;2023-03-04T16:41:21;7.20;;;3.53;;
14316;SDS011;7242;50.858;6.586;2023-03-04T16:44:27;6.27;;;2.87;;
14316;SDS011;7242;50.858;6.586;2023-03-04T16:47:28;4.33;;;3.17;;
14316;SDS011;7242;50.858;6.586;2023-03-04T16:50:28;5.23;;;3.10;;
14316;SDS011;7242;50.858;6.586;2023-03-04T16:53:36;6.37;;;3.50;;
14316;SDS011;7242;50.858;6.586;2023-03-04T16:56:38;6.50;;;3.00;;
14316;SDS011;7242;50.858;6.586;2023-03-04T16:59:39;5.10;;;3.80;;
14316;SDS011;7242;50.858;6.586;2023-03-04T17:02:40;8.63;;;3.93;;
14316;SDS011;7242;50.858;6.586;2023-03-04T17:05:41;6.43;;;3.77;;
14316;SDS011;7242;50.858;6.586;2023-03-04T17:08:43;5.97;;;3.77;;
14316;SDS011;7242;50.858;6.586;2023-03-04T17:11:44;5.00;;;3.90;;
14316;SDS011;7242;50.858;6.586;2023-03-04T17:14:45;6.37;;;3.97;;
14316;SDS011;7242;50.858;6.586;2023-03-04T17:17:47;7.23;;;3.97;;
14316;SDS011;7242;50.858;6.586;2023-03-04T17:20:47;7.50;;;4.30;;
14316;SDS011;7242;50.858;6.586;2023-03-04T17:23:49;6.80;;;4.57;;
14316;SDS011;7242;50.858;6.586;2023-03-04T17:26:50;6.47;;;4.67;;
14316;SDS011;7242;50.858;6.586;2023-03-04T17:29:51;10.07;;;5.33;;
14316;SDS011;7242;50.858;6.586;2023-03-04T17:32:52;7.47;;;5.00;;
14316;SDS011;7242;50.858;6.586;2023-03-04T17:35:53;7.80;;;5.00;;
14316;SDS011;7242;50.858;6.586;2023-03-04T17:38:55;8.80;;;5.30;;
14316;SDS011;7242;50.858;6.586;2023-03-04T17:41:57;7.73;;;5.40;;
14316;SDS011;7242;50.858;6.586;2023-03-04T17:44:58;7.37;;;5.40;;
14316;SDS011;7242;50.858;6.586;2023-03-04T17:47:59;8.60;;;5.70;;
14316;SDS011;7242;50.858;6.586;2023-03-04T17:50:59;7.37;;;5.10;;
14316;SDS011;7242;50.858;6.586;2023-03-04T17:54:00;7.63;;;5.30;;
14316;SDS011;7242;50.858;6.586;2023-03-04T17:57:02;7.23;;;5.17;;
14316;SDS011;7242;50.858;6.586;2023-03-04T18:00:03;6.83;;;4.73;;
14316;SDS011;7242;50.858;6.586;2023-03-04T18:03:07;6.50;;;4.67;;
14316;SDS011;7242;50.858;6.586;2023-03-04T18:06:11;7.83;;;5.23;;
14316;SDS011;7242;50.858;6.586;2023-03-04T18:09:12;6.07;;;4.80;;
14316;SDS011;7242;50.858;6.586;2023-03-04T18:12:13;6.83;;;5.00;;
14316;SDS011;7242;50.858;6.586;2023-03-04T18:15:14;5.47;;;4.60;;
14316;SDS011;7242;50.858;6.586;2023-03-04T18:18:15;6.73;;;5.07;;
14316;SDS011;7242;50.858;6.586;2023-03-04T18:21:16;6.97;;;4.80;;
14316;SDS011;7242;50.858;6.586;2023-03-04T18:24:18;7.97;;;5.00;;
14316;SDS011;7242;50.858;6.586;2023-03-04T18:27:19;8.27;;;5.13;;
14316;SDS011;7242;50.858;6.586;2023-03-04T18:30:19;8.20;;;5.07;;
14316;SDS011;7242;50.858;6.586;2023-03-04T18:33:26;10.17;;;5.57;;
14316;SDS011;7242;50.858;6.586;2023-03-04T18:36:27;6.97;;;5.30;;
14316;SDS011;7242;50.858;6.586;2023-03-04T18:39:28;9.40;;;5.50;;
14316;SDS011;7242;50.858;6.586;2023-03-04T18:42:29;9.37;;;5.60;;
14316;SDS011;7242;50.858;6.586;2023-03-04T18:45:30;7.53;;;5.47;;
14316;SDS011;7242;50.858;6.586;2023-03-04T18:48:31;7.90;;;5.43;;
14316;SDS011;7242;50.858;6.586;2023-03-04T18:51:36;5.10;;;4.47;;
14316;SDS011;7242;50.858;6.586;2023-03-04T18:54:38;6.87;;;4.63;;
14316;SDS011;7242;50.858;6.586;2023-03-04T18:57:39;7.57;;;5.20;;
14316;SDS011;7242;50.858;6.586;2023-03-04T19:00:42;7.37;;;4.90;;
14316;SDS011;7242;50.858;6.586;2023-03-04T19:03:43;10.23;;;5.57;;
14316;SDS011;7242;50.858;6.586;2023-03-04T19:06:44;9.43;;;5.13;;
14316;SDS011;7242;50.858;6.586;2023-03-04T19:09:45;8.57;;;4.97;;
14316;SDS011;7242;50.858;6.586;2023-03-04T19:12:46;9.53;;;5.30;;
14316;SDS011;7242;50.858;6.586;2023-03-04T19:15:50;7.97;;;4.93;;
14316;SDS011;7242;50.858;6.586;2023-03-04T19:18:52;8.00;;;5.10;;
14316;SDS011;7242;50.858;6.586;2023-03-04T19:21:53;10.27;;;4.77;;
14316;SDS011;7242;50.858;6.586;2023-03-04T19:24:55;8.63;;;5.33;;
14316;SDS011;7242;50.858;6.586;2023-03-04T19:27:56;7.73;;;4.90;;
14316;SDS011;7242;50.858;6.586;2023-03-04T19:30:56;7.73;;;4.33;;
14316;SDS011;7242;50.858;6.586;2023-03-04T19:33:58;6.27;;;4.40;;
14316;SDS011;7242;50.858;6.586;2023-03-04T19:36:59;7.10;;;4.87;;
14316;SDS011;7242;50.858;6.586;2023-03-04T19:39:59;8.80;;;4.20;;
14316;SDS011;7242;50.858;6.586;2023-03-04T19:43:00;7.27;;;4.50;;
14316;SDS011;7242;50.858;6.586;2023-03-04T19:46:01;6.13;;;4.40;;
14316;SDS011;7242;50.858;6.586;2023-03-04T19:49:02;8.70;;;4.27;;
14316;SDS011;7242;50.858;6.586;2023-03-04T19:52:04;6.57;;;4.23;;
14316;SDS011;7242;50.858;6.586;2023-03-04T19:55:05;7.20;;;4.50;;
14316;SDS011;7242;50.858;6.586;2023-03-04T19:58:06;7.13;;;4.60;;
14316;SDS011;7242;50.858;6.586;2023-03-04T20:04:28;6.70;;;3.00;;